createdAt,value
2019-04-30T04:24:50.400Z,12.50
2019-04-30T04:27:21.193Z,12.50
2019-04-30T04:29:51.527Z,12.50
2019-04-30T04:32:24.424Z,12.50
2019-04-30T04:34:54.951Z,12.50
2019-04-30T04:37:25.267Z,12.40
2019-04-30T04:39:55.559Z,12.40
2019-04-30T04:42:26.129Z,12.50
2019-04-30T04:44:56.393Z,12.40
2019-04-30T04:47:26.727Z,12.40
2019-04-30T04:49:57.027Z,12.30
2019-04-30T04:52:31.117Z,12.30
2019-04-30T04:55:00.332Z,12.40
2019-04-30T04:57:31.640Z,12.30
2019-04-30T05:00:07.094Z,12.50
2019-04-30T05:02:42.095Z,12.30
2019-04-30T05:05:12.864Z,12.30
2019-04-30T05:07:43.349Z,12.30
2019-04-30T05:10:14.009Z,12.40
2019-04-30T05:12:44.416Z,12.50
2019-04-30T05:15:14.852Z,12.50
2019-04-30T05:17:45.172Z,12.30
2019-04-30T05:20:15.571Z,12.30
2019-04-30T05:22:48.945Z,12.30
2019-04-30T05:25:20.833Z,12.30
2019-04-30T05:27:51.291Z,12.30
2019-04-30T05:30:24.982Z,12.20
2019-04-30T05:32:58.498Z,12.00
2019-04-30T05:35:31.039Z,11.90
2019-04-30T05:38:01.073Z,12.00
2019-04-30T05:40:31.650Z,12.00
2019-04-30T05:43:02.152Z,11.80
2019-04-30T05:45:33.707Z,11.70
2019-04-30T05:48:04.484Z,11.80
2019-04-30T05:50:34.849Z,11.70
2019-04-30T05:53:05.201Z,11.80
2019-04-30T05:55:35.579Z,12.00
2019-04-30T05:58:05.939Z,12.10
2019-04-30T06:00:36.449Z,12.10
2019-04-30T06:03:09.300Z,12.00
2019-04-30T06:05:39.574Z,12.20
2019-04-30T06:08:13.328Z,12.30
2019-04-30T06:10:51.780Z,12.50
2019-04-30T06:13:44.336Z,12.40
2019-04-30T06:16:18.795Z,12.50
2019-04-30T06:18:49.136Z,12.70
2019-04-30T06:21:21.578Z,12.70
2019-04-30T06:23:51.361Z,12.70
2019-04-30T06:26:21.889Z,12.70
2019-04-30T06:28:52.200Z,12.70
2019-04-30T06:31:32.359Z,12.70
2019-04-30T06:33:54.468Z,12.60
2019-04-30T06:36:25.296Z,12.60
2019-04-30T06:38:55.674Z,12.60
2019-04-30T06:41:26.107Z,12.40
2019-04-30T06:43:58.644Z,12.50
2019-04-30T06:46:28.945Z,12.50
2019-04-30T06:48:59.652Z,12.60
2019-04-30T06:51:31.317Z,12.80
2019-04-30T06:54:01.663Z,12.80
2019-04-30T06:56:31.951Z,12.70
2019-04-30T06:59:04.829Z,12.90
2019-04-30T07:01:35.324Z,13.00
2019-04-30T07:04:05.666Z,13.10
2019-04-30T07:06:37.157Z,13.20
2019-04-30T07:09:22.030Z,13.30
2019-04-30T07:11:59.273Z,13.30
2019-04-30T07:14:30.173Z,13.50
2019-04-30T07:17:00.512Z,13.40
2019-04-30T07:19:38.244Z,13.40
2019-04-30T07:22:02.802Z,13.40
2019-04-30T07:24:33.159Z,13.40
2019-04-30T07:27:03.428Z,13.40
2019-04-30T07:29:33.757Z,13.50
2019-04-30T07:32:04.076Z,13.40
2019-04-30T07:34:37.013Z,13.50
2019-04-30T07:37:16.315Z,13.70
2019-04-30T07:39:39.398Z,13.60
2019-04-30T07:42:09.731Z,13.60
2019-04-30T07:44:40.069Z,13.60
2019-04-30T07:47:10.371Z,13.70
2019-04-30T07:49:49.846Z,13.90
2019-04-30T07:52:13.084Z,13.80
2019-04-30T07:54:43.949Z,13.90
2019-04-30T07:57:14.289Z,14.00
2019-04-30T07:59:44.583Z,14.00
2019-04-30T08:02:14.998Z,14.00
2019-04-30T08:04:56.833Z,13.90
2019-04-30T08:07:27.124Z,14.00
2019-04-30T08:09:58.968Z,14.00
2019-04-30T08:12:34.377Z,14.00
2019-04-30T08:15:01.384Z,14.00
2019-04-30T08:17:33.244Z,14.10
2019-04-30T08:20:03.636Z,14.20
2019-04-30T08:22:34.094Z,14.40
2019-04-30T08:25:04.471Z,14.30
2019-04-30T08:27:34.768Z,14.40
2019-04-30T08:30:18.355Z,14.30
2019-04-30T08:32:38.675Z,14.30
2019-04-30T08:35:09.855Z,14.20
2019-04-30T08:37:41.706Z,14.30
2019-04-30T08:40:12.024Z,14.50
2019-04-30T08:42:42.362Z,14.60
2019-04-30T08:45:12.772Z,14.50
2019-04-30T08:47:43.074Z,14.70
2019-04-30T08:50:13.657Z,14.60
2019-04-30T08:52:44.035Z,14.60
2019-04-30T08:55:17.139Z,14.60
2019-04-30T08:57:47.676Z,14.70
2019-04-30T09:00:19.513Z,14.90
2019-04-30T09:02:49.990Z,15.00
2019-04-30T09:05:30.475Z,14.90
2019-04-30T09:08:00.472Z,14.90
2019-04-30T09:10:30.806Z,15.00
2019-04-30T09:13:01.232Z,15.10
2019-04-30T09:15:31.562Z,15.30
2019-04-30T09:18:06.344Z,15.30
2019-04-30T09:20:34.983Z,15.40
2019-04-30T09:23:05.291Z,15.50
2019-04-30T09:25:35.607Z,15.60
2019-04-30T09:28:05.898Z,15.60
2019-04-30T09:30:36.258Z,15.70
2019-04-30T09:33:06.549Z,15.80
2019-04-30T09:35:39.358Z,15.80
2019-04-30T09:38:09.329Z,15.80
2019-04-30T09:40:41.640Z,15.90
2019-04-30T09:43:11.585Z,16.00
2019-04-30T09:45:41.908Z,16.00
2019-04-30T09:48:12.213Z,16.10
2019-04-30T09:50:42.844Z,16.10
2019-04-30T09:53:13.386Z,16.20
2019-04-30T09:55:43.624Z,16.30
2019-04-30T09:58:17.408Z,16.50
2019-04-30T10:00:45.909Z,16.70
2019-04-30T10:03:17.603Z,17.00
2019-04-30T10:05:49.139Z,17.40
2019-04-30T10:08:21.367Z,17.70
2019-04-30T10:11:09.769Z,17.90
2019-04-30T10:13:40.212Z,18.10
2019-04-30T10:16:29.644Z,18.30
2019-04-30T10:19:01.434Z,18.60
2019-04-30T10:21:31.849Z,18.70
2019-04-30T10:24:12.433Z,18.90
2019-04-30T10:26:34.708Z,19.10
2019-04-30T10:29:05.250Z,19.20
2019-04-30T10:31:35.561Z,19.40
2019-04-30T10:34:05.894Z,19.50
2019-04-30T10:36:36.295Z,19.50
2019-04-30T10:39:09.341Z,19.60
2019-04-30T10:41:40.200Z,19.60
2019-04-30T10:44:10.983Z,19.70
2019-04-30T10:46:41.797Z,19.80
2019-04-30T10:49:12.481Z,20.00
2019-04-30T10:51:43.191Z,20.00
2019-04-30T10:54:23.204Z,20.20
2019-04-30T10:56:46.067Z,20.30
2019-04-30T10:59:16.644Z,20.40
2019-04-30T11:01:49.190Z,20.30
2019-04-30T11:04:20.272Z,20.50
2019-04-30T11:06:50.850Z,20.90
2019-04-30T11:09:21.699Z,21.10
2019-04-30T11:11:53.371Z,21.00
2019-04-30T11:14:23.892Z,20.90
2019-04-30T11:17:13.665Z,21.10
2019-04-30T11:19:44.745Z,21.20
2019-04-30T11:22:15.970Z,21.30
2019-04-30T11:24:56.670Z,21.30
2019-04-30T11:27:20.667Z,21.50
2019-04-30T11:29:50.970Z,21.70
2019-04-30T11:32:23.473Z,21.80
2019-04-30T11:34:53.940Z,22.00
2019-04-30T11:37:24.260Z,22.30
2019-04-30T11:39:54.562Z,22.70
2019-04-30T11:42:24.892Z,23.00
2019-04-30T11:44:55.205Z,23.20
2019-04-30T11:47:36.684Z,23.50
2019-04-30T11:50:10.305Z,23.60
2019-04-30T11:52:40.712Z,23.70
2019-04-30T11:55:11.536Z,23.90
2019-04-30T11:57:41.856Z,24.10
2019-04-30T12:00:18.693Z,24.50
2019-04-30T12:02:52.905Z,24.70
2019-04-30T12:05:21.101Z,24.70
2019-04-30T12:08:03.935Z,25.20
2019-04-30T12:11:02.233Z,25.40
2019-04-30T12:13:33.713Z,26.00
2019-04-30T12:16:05.568Z,26.20
2019-04-30T12:18:36.989Z,26.70
2019-04-30T12:21:07.280Z,27.10
2019-04-30T12:23:37.658Z,27.40
2019-04-30T12:26:09.174Z,27.80
2019-04-30T12:28:39.701Z,28.30
2019-04-30T12:31:10.020Z,28.40
2019-04-30T12:33:40.390Z,28.80
2019-04-30T12:36:10.750Z,29.10
2019-04-30T12:38:41.086Z,29.70
2019-04-30T12:41:11.412Z,29.80
2019-04-30T12:43:41.754Z,30.00
2019-04-30T12:46:12.127Z,30.00
2019-04-30T12:48:56.850Z,30.20
2019-04-30T12:51:52.423Z,30.70
2019-04-30T12:54:31.858Z,30.40
2019-04-30T12:57:12.771Z,29.90
2019-04-30T12:59:43.086Z,28.90
2019-04-30T13:02:13.487Z,27.60
2019-04-30T13:04:43.992Z,26.20
2019-04-30T13:07:14.856Z,25.30
2019-04-30T13:09:45.868Z,24.60
2019-04-30T13:12:16.906Z,24.30
2019-04-30T13:14:53.947Z,24.30
2019-04-30T13:17:19.345Z,25.20
2019-04-30T13:19:49.711Z,26.60
2019-04-30T13:22:20.000Z,28.20
2019-04-30T13:24:50.439Z,29.10
2019-04-30T13:27:22.345Z,29.90
2019-04-30T13:30:11.649Z,30.90
2019-04-30T13:32:54.961Z,31.20
2019-04-30T13:35:25.391Z,31.60
2019-04-30T13:38:04.309Z,32.00
2019-04-30T13:40:41.538Z,31.80
2019-04-30T13:43:12.007Z,32.20
2019-04-30T13:45:42.323Z,33.40
2019-04-30T13:48:12.546Z,34.20
2019-04-30T13:50:42.849Z,34.50
2019-04-30T13:53:13.149Z,34.60
2019-04-30T13:55:45.905Z,34.80
2019-04-30T13:58:17.992Z,35.10
2019-04-30T14:00:49.437Z,35.10
2019-04-30T14:03:30.008Z,36.20
2019-04-30T14:06:00.351Z,36.70
2019-04-30T14:08:35.346Z,35.50
2019-04-30T14:11:05.643Z,34.90
2019-04-30T14:13:35.952Z,35.20
2019-04-30T14:16:06.362Z,35.60
2019-04-30T14:18:39.144Z,35.30
2019-04-30T14:21:09.528Z,34.80
2019-04-30T14:23:39.824Z,34.30
2019-04-30T14:26:10.144Z,32.90
2019-04-30T14:28:40.506Z,32.40
2019-04-30T14:31:10.818Z,31.80
2019-04-30T14:33:41.138Z,31.70
2019-04-30T14:36:11.549Z,31.90
2019-04-30T14:38:41.864Z,32.10
2019-04-30T14:41:12.841Z,32.50
2019-04-30T14:43:51.566Z,33.50
2019-04-30T14:46:41.756Z,34.00
2019-04-30T14:49:31.012Z,34.80
2019-04-30T14:52:02.192Z,35.40
2019-04-30T14:54:58.675Z,36.30
2019-04-30T14:57:51.277Z,36.50
2019-04-30T15:00:41.774Z,35.80
2019-04-30T15:03:14.121Z,36.10
2019-04-30T15:05:48.640Z,36.30
2019-04-30T15:08:16.535Z,37.00
2019-04-30T15:10:46.835Z,37.90
2019-04-30T15:13:19.381Z,38.00
2019-04-30T15:15:49.223Z,38.10
2019-04-30T15:18:19.527Z,36.80
2019-04-30T15:20:49.966Z,35.60
2019-04-30T15:23:40.326Z,36.30
2019-04-30T15:26:21.370Z,36.80
2019-04-30T15:28:42.540Z,35.80
2019-04-30T15:31:12.919Z,35.20
2019-04-30T15:34:02.234Z,33.40
2019-04-30T15:36:22.859Z,31.90
2019-04-30T15:39:10.918Z,30.40
2019-04-30T15:41:41.298Z,29.40
2019-04-30T15:44:11.707Z,28.30
2019-04-30T15:46:42.255Z,27.10
2019-04-30T15:49:12.910Z,26.70
2019-04-30T15:51:43.413Z,26.00
2019-04-30T15:54:13.732Z,25.50
2019-04-30T15:56:44.609Z,25.10
2019-04-30T15:59:34.678Z,24.40
2019-04-30T16:02:34.759Z,24.30
2019-04-30T16:05:32.232Z,24.50
2019-04-30T16:08:15.524Z,24.40
2019-04-30T16:11:13.869Z,24.10
2019-04-30T16:14:18.690Z,24.00
2019-04-30T16:17:14.460Z,23.80
2019-04-30T16:19:45.238Z,23.70
2019-04-30T16:22:16.045Z,23.30
2019-04-30T16:24:46.590Z,22.90
2019-04-30T16:27:19.176Z,22.60
2019-04-30T16:29:51.153Z,22.60
2019-04-30T16:32:23.455Z,22.50
2019-04-30T16:34:54.631Z,22.30
2019-04-30T16:37:25.173Z,22.00
2019-04-30T16:39:55.578Z,22.30
2019-04-30T16:42:25.895Z,22.40
2019-04-30T16:44:56.179Z,22.40
2019-04-30T16:47:26.566Z,22.40
2019-04-30T16:49:58.777Z,22.30
2019-04-30T16:52:29.454Z,22.30
2019-04-30T16:55:00.003Z,22.30
2019-04-30T16:57:30.456Z,22.30
2019-04-30T17:00:00.714Z,22.30
2019-04-30T17:02:32.432Z,22.10
2019-04-30T17:05:14.800Z,22.00
2019-04-30T17:08:09.539Z,21.80
2019-04-30T17:11:11.171Z,21.80
2019-04-30T17:13:54.689Z,21.80
2019-04-30T17:16:25.270Z,21.70
2019-04-30T17:18:56.263Z,21.70
2019-04-30T17:21:26.607Z,21.50
2019-04-30T17:23:58.755Z,21.50
2019-04-30T17:26:29.842Z,21.40
2019-04-30T17:29:00.247Z,21.30
2019-04-30T17:31:30.525Z,21.30
2019-04-30T17:34:01.123Z,21.30
2019-04-30T17:36:31.640Z,21.20
2019-04-30T17:39:02.158Z,21.00
2019-04-30T17:41:34.331Z,20.90
2019-04-30T17:44:04.819Z,20.90
2019-04-30T17:46:35.250Z,20.90
2019-04-30T17:49:06.482Z,20.90
2019-04-30T17:51:37.280Z,20.90
2019-04-30T17:54:13.602Z,20.80
2019-04-30T17:56:44.854Z,20.70
2019-04-30T17:59:15.262Z,20.60
2019-04-30T18:01:52.055Z,20.60
2019-04-30T18:04:22.607Z,20.40
2019-04-30T18:06:53.404Z,20.30
2019-04-30T18:09:24.637Z,20.20
2019-04-30T18:11:55.609Z,20.10
2019-04-30T18:14:26.002Z,20.20
2019-04-30T18:16:56.349Z,20.20
2019-04-30T18:19:38.587Z,20.20
2019-04-30T18:22:22.313Z,20.10
2019-04-30T18:25:04.098Z,20.00
2019-04-30T18:27:45.938Z,20.00
2019-04-30T18:30:13.884Z,20.00
2019-04-30T18:32:44.224Z,19.90
2019-04-30T18:35:14.643Z,19.80
2019-04-30T18:37:45.005Z,19.90
2019-04-30T18:40:15.602Z,19.80
2019-04-30T18:42:45.867Z,19.70
2019-04-30T18:45:16.509Z,19.70
2019-04-30T18:47:46.870Z,19.60
2019-04-30T18:50:17.395Z,19.50
2019-04-30T18:52:50.367Z,19.50
2019-04-30T18:55:20.334Z,19.40
2019-04-30T18:57:56.688Z,19.40
2019-04-30T19:00:32.925Z,19.30
2019-04-30T19:03:03.358Z,19.20
2019-04-30T19:05:34.166Z,19.10
2019-04-30T19:08:09.867Z,19.10
2019-04-30T19:11:09.000Z,19.00
2019-04-30T19:14:10.584Z,18.90
2019-04-30T19:16:54.949Z,19.00
2019-04-30T19:19:48.313Z,18.80
2019-04-30T19:22:19.611Z,18.70
2019-04-30T19:24:58.243Z,18.70
2019-04-30T19:27:21.948Z,18.60
2019-04-30T19:29:52.250Z,18.50
2019-04-30T19:32:22.680Z,18.50
2019-04-30T19:34:52.992Z,18.40
2019-04-30T19:37:23.327Z,18.30
2019-04-30T19:39:53.813Z,18.20
2019-04-30T19:42:24.201Z,18.20
2019-04-30T19:45:00.620Z,18.10
2019-04-30T19:47:26.647Z,18.10
2019-04-30T19:49:56.960Z,18.00
2019-04-30T19:52:29.480Z,17.90
2019-04-30T19:54:59.424Z,17.80
2019-04-30T19:57:29.863Z,17.80
2019-04-30T20:00:00.526Z,17.70
2019-04-30T20:02:30.899Z,17.50
2019-04-30T20:05:01.424Z,17.60
2019-04-30T20:07:31.982Z,17.50
2019-04-30T20:10:04.135Z,17.50
2019-04-30T20:12:39.605Z,17.50
2019-04-30T20:15:17.355Z,17.40
2019-04-30T20:17:43.068Z,17.40
2019-04-30T20:20:13.497Z,17.30
2019-04-30T20:22:44.424Z,17.20
2019-04-30T20:25:19.047Z,17.20
2019-04-30T20:27:50.576Z,17.10
2019-04-30T20:30:24.083Z,16.80
2019-04-30T20:32:59.455Z,16.90
2019-04-30T20:35:30.820Z,16.90
2019-04-30T20:38:22.464Z,16.70
2019-04-30T20:41:00.284Z,16.80
2019-04-30T20:43:25.370Z,16.70
2019-04-30T20:45:55.769Z,16.70
2019-04-30T20:48:26.097Z,16.50
2019-04-30T20:50:56.728Z,16.60
2019-04-30T20:53:27.105Z,16.70
2019-04-30T20:55:59.252Z,16.60
2019-04-30T20:58:29.766Z,16.50
2019-04-30T21:01:05.939Z,16.60
2019-04-30T21:03:32.214Z,16.60
2019-04-30T21:06:02.599Z,16.60
2019-04-30T21:08:32.968Z,16.50
2019-04-30T21:11:03.284Z,16.30
2019-04-30T21:13:33.702Z,16.40
2019-04-30T21:16:03.999Z,16.20
2019-04-30T21:18:34.362Z,16.20
2019-04-30T21:21:04.706Z,16.20
2019-04-30T21:23:35.042Z,16.20
2019-04-30T21:26:05.372Z,16.00
2019-04-30T21:28:35.731Z,16.10
2019-04-30T21:31:24.069Z,16.10
2019-04-30T21:33:58.821Z,16.20
2019-04-30T21:36:30.001Z,16.20
2019-04-30T21:39:00.364Z,16.30
2019-04-30T21:41:30.759Z,16.30
2019-04-30T21:44:01.133Z,16.30
2019-04-30T21:46:31.881Z,16.20
2019-04-30T21:49:03.191Z,16.20
2019-04-30T21:51:35.307Z,16.10
2019-04-30T21:54:06.224Z,16.20
